Time;durP1;ratioP1;P1;durP2;ratioP2;P2;SDS_P1;SDS_P2;PMS_P1;PMS_P2;Temp;Humidity;BMP_temperature;BMP_pressure;BME280_temperature;BME280_humidity;BME280_pressure;Samples;Min_cycle;Max_cycle;Signal;HPM_P1;HPM_P2
2022/03/17 00:00:13;;;;;;;28.80;17.58;;;13.50;99.90;;;;;;5055100;28;20230;-86
2022/03/17 00:02:45;;;;;;;36.30;18.05;;;13.50;99.90;;;;;;5053633;28;20186;-85
2022/03/17 00:05:11;;;;;;;33.70;17.77;;;13.60;99.90;;;;;;5054974;28;20187;-82
2022/03/17 00:07:38;;;;;;;31.75;19.13;;;13.60;99.90;;;;;;5054892;28;20179;-84
2022/03/17 00:10:13;;;;;;;37.55;17.45;;;13.60;99.90;;;;;;5053173;28;20177;-83
2022/03/17 00:12:39;;;;;;;35.90;19.23;;;13.40;99.90;;;;;;5053860;28;20193;-82
2022/03/17 00:15:07;;;;;;;32.30;17.92;;;13.40;99.90;;;;;;5055212;28;20171;-86
2022/03/17 00:17:32;;;;;;;27.08;17.95;;;13.40;99.90;;;;;;5052308;28;20210;-83
2022/03/17 00:20:03;;;;;;;34.88;18.42;;;13.30;99.90;;;;;;5070966;28;20202;-83
2022/03/17 00:22:34;;;;;;;30.77;19.27;;;13.40;99.90;;;;;;5059451;28;20230;-87
2022/03/17 00:25:10;;;;;;;32.47;18.45;;;13.50;99.90;;;;;;5072511;28;20226;-84
2022/03/17 00:27:40;;;;;;;42.95;20.92;;;13.60;99.90;;;;;;5055377;28;20183;-85
2022/03/17 00:30:07;;;;;;;39.65;18.95;;;13.60;99.90;;;;;;5070453;28;20266;-83
2022/03/17 00:32:38;;;;;;;33.60;18.17;;;13.60;99.90;;;;;;5073337;28;20162;-82
2022/03/17 00:35:42;;;;;;;39.97;18.85;;;13.50;99.90;;;;;;5070991;28;20147;-87
2022/03/17 00:38:28;;;;;;;34.33;18.48;;;13.50;99.90;;;;;;5070471;28;20147;-85
2022/03/17 00:40:55;;;;;;;36.03;19.77;;;13.60;99.90;;;;;;5074235;28;20160;-84
2022/03/17 00:43:22;;;;;;;39.30;20.33;;;13.50;99.90;;;;;;5072598;28;20213;-86
2022/03/17 00:45:48;;;;;;;36.20;18.70;;;13.50;99.90;;;;;;5070645;28;20193;-86
2022/03/17 00:48:15;;;;;;;32.30;17.70;;;13.50;99.90;;;;;;5058339;28;20155;-85
2022/03/17 00:50:41;;;;;;;37.35;20.98;;;13.50;99.90;;;;;;5057419;28;20175;-83
2022/03/17 00:53:07;;;;;;;39.15;20.15;;;13.50;99.90;;;;;;5071461;28;20187;-86
2022/03/17 00:55:36;;;;;;;39.75;21.05;;;13.50;99.90;;;;;;5072778;28;20151;-84
2022/03/17 00:58:02;;;;;;;35.38;20.02;;;13.40;99.90;;;;;;5071667;28;20171;-81
2022/03/17 01:00:31;;;;;;;30.05;19.10;;;13.50;99.90;;;;;;5075488;28;20177;-83
2022/03/17 01:03:00;;;;;;;33.03;19.33;;;13.50;99.90;;;;;;5069504;28;20235;-88
2022/03/17 01:05:28;;;;;;;38.92;21.15;;;13.40;99.90;;;;;;5067924;28;20187;-83
2022/03/17 01:07:54;;;;;;;32.65;20.83;;;13.40;99.90;;;;;;5064750;28;20205;-87
2022/03/17 01:10:22;;;;;;;36.17;20.52;;;13.30;99.90;;;;;;5066798;28;20194;-84
2022/03/17 01:12:49;;;;;;;29.90;18.70;;;13.40;99.90;;;;;;5068235;28;20573;-83
2022/03/17 01:15:21;;;;;;;31.40;17.88;;;13.40;99.90;;;;;;5072587;28;20182;-83
2022/03/17 01:17:47;;;;;;;27.63;17.90;;;13.40;99.90;;;;;;5071661;28;20253;-88
2022/03/17 01:20:13;;;;;;;25.45;17.70;;;13.30;99.90;;;;;;5071604;28;20225;-86
2022/03/17 01:22:41;;;;;;;27.60;16.92;;;13.20;99.90;;;;;;5062798;28;20167;-85
2022/03/17 01:25:07;;;;;;;24.52;14.82;;;13.10;99.90;;;;;;5060869;28;20199;-85
2022/03/17 01:27:34;;;;;;;17.25;13.25;;;13.00;99.90;;;;;;5060897;28;20706;-86
2022/03/17 01:30:01;;;;;;;21.70;12.32;;;12.90;99.90;;;;;;5062284;28;20175;-87
2022/03/17 01:32:32;;;;;;;14.50;12.73;;;13.00;99.90;;;;;;5064703;28;20186;-85
2022/03/17 01:34:59;;;;;;;19.25;11.65;;;12.90;99.90;;;;;;5064670;28;20190;-85
2022/03/17 01:37:24;;;;;;;20.92;12.50;;;12.90;99.90;;;;;;5063545;28;20197;-82
2022/03/17 01:39:50;;;;;;;17.80;12.80;;;12.50;99.90;;;;;;5067942;28;20183;-86
2022/03/17 01:42:16;;;;;;;18.70;13.80;;;12.30;99.90;;;;;;5066023;28;20256;-81
2022/03/17 01:44:43;;;;;;;19.73;15.18;;;11.90;99.90;;;;;;5070991;28;20260;-85
2022/03/17 01:47:27;;;;;;;16.75;14.02;;;11.70;99.90;;;;;;5078969;28;20187;-79
2022/03/17 01:49:53;;;;;;;22.65;13.15;;;11.50;99.90;;;;;;5058246;28;20175;-82
2022/03/17 01:52:19;;;;;;;15.48;12.95;;;11.40;99.90;;;;;;5057042;28;20179;-80
2022/03/17 01:54:45;;;;;;;21.27;13.85;;;11.10;99.90;;;;;;5057144;28;20167;-84
2022/03/17 01:57:12;;;;;;;22.00;14.63;;;11.00;99.90;;;;;;5057208;28;20207;-80
2022/03/17 01:59:39;;;;;;;23.08;14.98;;;10.90;99.90;;;;;;5057380;28;20174;-80
2022/03/17 02:02:06;;;;;;;24.48;14.60;;;10.90;99.90;;;;;;5059539;28;20208;-86
2022/03/17 02:04:31;;;;;;;23.42;14.68;;;10.80;99.90;;;;;;5056887;28;20252;-85
2022/03/17 02:06:57;;;;;;;23.85;14.98;;;10.60;99.90;;;;;;5056892;28;20270;-84
2022/03/17 02:09:26;;;;;;;21.80;14.63;;;10.60;99.90;;;;;;5057060;28;20159;-84
2022/03/17 02:15:04;;;;;;;25.67;15.43;;;10.60;99.90;;;;;;5057865;28;20290;-83
2022/03/17 02:17:30;;;;;;;31.40;15.93;;;10.60;99.90;;;;;;5056872;28;20186;-84
2022/03/17 02:19:58;;;;;;;26.23;16.05;;;10.60;99.90;;;;;;5056658;28;20635;-84
2022/03/17 02:22:25;;;;;;;26.92;14.95;;;10.70;99.90;;;;;;5055583;28;20179;-85
2022/03/17 02:27:47;;;;;;;24.63;14.63;;;10.90;99.90;;;;;;5056558;28;20202;-84
2022/03/17 02:30:15;;;;;;;32.78;14.88;;;10.80;99.90;;;;;;5056566;28;20177;-79
2022/03/17 02:32:42;;;;;;;23.75;14.40;;;10.80;99.90;;;;;;5056716;28;20160;-81
2022/03/17 02:35:13;;;;;;;26.08;14.73;;;10.80;99.90;;;;;;5056686;28;20155;-86
2022/03/17 02:37:39;;;;;;;23.90;14.77;;;10.90;99.90;;;;;;5057639;28;20202;-85
2022/03/17 02:40:10;;;;;;;27.73;15.00;;;11.00;99.90;;;;;;5056489;28;20163;-86
2022/03/17 02:42:37;;;;;;;28.63;15.15;;;10.90;99.90;;;;;;5055396;28;20266;-84
2022/03/17 02:45:07;;;;;;;25.77;14.60;;;10.80;99.90;;;;;;5055016;28;20731;-85
2022/03/17 02:47:33;;;;;;;19.42;14.05;;;10.80;99.90;;;;;;5055362;28;20187;-85
2022/03/17 02:49:59;;;;;;;19.25;13.45;;;10.80;99.90;;;;;;5055888;28;20179;-86
2022/03/17 02:52:26;;;;;;;25.38;14.70;;;10.70;99.90;;;;;;5055162;28;20163;-81
2022/03/17 02:54:53;;;;;;;21.55;14.40;;;10.70;99.90;;;;;;5054524;28;20163;-84
2022/03/17 02:57:19;;;;;;;21.05;14.85;;;10.80;99.90;;;;;;5056228;28;20179;-84
2022/03/17 02:59:49;;;;;;;20.25;13.70;;;10.90;99.90;;;;;;5055233;28;20167;-83
2022/03/17 03:02:19;;;;;;;24.98;13.70;;;10.80;99.90;;;;;;5054949;28;20163;-85
2022/03/17 03:04:44;;;;;;;19.90;13.70;;;10.80;99.90;;;;;;5054677;28;20606;-84
2022/03/17 03:07:10;;;;;;;20.80;14.05;;;10.80;99.90;;;;;;5055274;28;20192;-86
2022/03/17 03:09:36;;;;;;;20.27;13.50;;;11.00;99.90;;;;;;5056221;28;20171;-82
2022/03/17 03:12:02;;;;;;;18.33;13.23;;;10.90;99.90;;;;;;5056087;28;20182;-83
2022/03/17 03:14:29;;;;;;;21.38;14.35;;;10.80;99.90;;;;;;5061068;28;20554;-85
2022/03/17 03:16:55;;;;;;;19.33;14.07;;;10.90;99.90;;;;;;5054731;28;20266;-82
2022/03/17 03:19:20;;;;;;;20.33;13.32;;;11.00;99.90;;;;;;5055586;28;20171;-82
2022/03/17 03:21:46;;;;;;;19.52;13.32;;;10.90;99.90;;;;;;5054402;28;20175;-83
2022/03/17 03:24:15;;;;;;;16.27;13.13;;;10.90;99.90;;;;;;5066302;28;20201;-84
2022/03/17 03:26:41;;;;;;;16.98;11.43;;;10.90;99.90;;;;;;5065948;28;20740;-86
2022/03/17 03:31:40;;;;;;;17.92;10.70;;;10.50;99.90;;;;;;5069879;28;20172;-81
2022/03/17 03:34:05;;;;;;;11.13;9.95;;;10.50;99.90;;;;;;5061666;28;20525;-80
2022/03/17 03:39:16;;;;;;;11.82;10.38;;;10.60;99.90;;;;;;5062753;28;20221;-82
2022/03/17 03:41:50;;;;;;;13.77;10.20;;;10.70;99.90;;;;;;5062878;28;20151;-85
2022/03/17 03:44:17;;;;;;;10.52;9.38;;;10.70;99.90;;;;;;5066801;28;20187;-87
2022/03/17 03:46:44;;;;;;;12.95;9.65;;;10.70;99.90;;;;;;5063443;28;20182;-86
2022/03/17 03:49:10;;;;;;;13.18;9.55;;;10.60;99.90;;;;;;5064240;28;20175;-86
2022/03/17 03:51:36;;;;;;;14.70;8.25;;;10.50;99.90;;;;;;5068843;28;20218;-83
2022/03/17 03:54:16;;;;;;;11.63;9.60;;;10.40;99.90;;;;;;5068613;28;20270;-82
2022/03/17 03:56:53;;;;;;;10.40;8.70;;;10.30;99.90;;;;;;5073965;28;20162;-81
2022/03/17 03:59:22;;;;;;;14.10;9.48;;;10.30;99.90;;;;;;5078956;28;20159;-85
2022/03/17 04:02:10;;;;;;;9.90;9.00;;;10.40;99.90;;;;;;5076836;28;20195;-82
2022/03/17 04:04:40;;;;;;;9.52;8.73;;;10.30;99.90;;;;;;5070221;28;20693;-81
2022/03/17 04:07:08;;;;;;;12.30;8.93;;;10.20;99.90;;;;;;5063084;28;20250;-83
2022/03/17 04:09:39;;;;;;;10.68;9.52;;;10.20;99.90;;;;;;5066706;28;20175;-82
2022/03/17 04:12:07;;;;;;;11.77;9.32;;;10.20;99.90;;;;;;5063680;28;20167;-86
2022/03/17 04:14:35;;;;;;;10.07;9.02;;;10.10;99.90;;;;;;5070678;28;20183;-81
2022/03/17 04:17:01;;;;;;;10.65;9.15;;;10.00;99.90;;;;;;5061150;28;20194;-85
2022/03/17 04:19:27;;;;;;;8.82;8.05;;;10.10;99.90;;;;;;5062850;28;20159;-86
2022/03/17 04:21:53;;;;;;;11.48;8.18;;;10.20;99.90;;;;;;5058969;28;20190;-80
2022/03/17 04:24:20;;;;;;;10.25;9.18;;;10.20;99.90;;;;;;5063781;28;20201;-87
2022/03/17 04:26:46;;;;;;;9.65;8.63;;;10.20;99.90;;;;;;5054928;28;20179;-85
2022/03/17 04:29:13;;;;;;;11.48;9.93;;;10.30;99.90;;;;;;5059778;28;20213;-81
2022/03/17 04:31:41;;;;;;;10.27;9.27;;;10.30;99.90;;;;;;5059322;28;20163;-80
2022/03/17 04:34:09;;;;;;;17.55;8.85;;;10.30;99.90;;;;;;5060728;28;20167;-85
2022/03/17 04:36:35;;;;;;;14.15;9.07;;;10.10;99.90;;;;;;5059866;28;20183;-82
2022/03/17 04:39:06;;;;;;;10.43;8.25;;;10.20;99.90;;;;;;5061000;28;20160;-81
2022/03/17 04:41:32;;;;;;;12.35;8.95;;;10.30;99.90;;;;;;5059298;28;20616;-84
2022/03/17 04:43:58;;;;;;;15.07;8.40;;;10.20;99.90;;;;;;5062631;28;20225;-87
2022/03/17 04:46:23;;;;;;;11.73;8.70;;;10.20;99.90;;;;;;5057231;28;20213;-87
2022/03/17 04:48:49;;;;;;;8.35;7.63;;;10.10;99.90;;;;;;5058840;28;20222;-87
2022/03/17 04:51:15;;;;;;;12.77;7.63;;;10.10;99.90;;;;;;5058435;28;20270;-83
2022/03/17 04:53:41;;;;;;;11.60;7.65;;;10.00;99.90;;;;;;5062532;28;20175;-84
2022/03/17 04:56:30;;;;;;;11.68;7.53;;;9.90;99.90;;;;;;5061102;28;20195;-85
2022/03/17 04:58:56;;;;;;;15.02;8.02;;;9.90;99.90;;;;;;5063016;28;20179;-85
2022/03/17 05:01:23;;;;;;;8.18;7.40;;;10.00;99.90;;;;;;5058342;28;20225;-82
2022/03/17 05:03:49;;;;;;;9.48;6.70;;;10.10;99.90;;;;;;5059873;28;20221;-83
2022/03/17 05:06:16;;;;;;;8.80;6.85;;;10.10;99.90;;;;;;5042539;28;20190;-85
2022/03/17 05:08:42;;;;;;;5.95;5.45;;;10.10;99.90;;;;;;5061167;28;20206;-86
2022/03/17 05:11:10;;;;;;;7.03;6.22;;;10.00;99.90;;;;;;5060256;28;20226;-85
2022/03/17 05:13:39;;;;;;;9.98;6.60;;;9.90;99.90;;;;;;5058881;28;20183;-84
2022/03/17 05:16:06;;;;;;;7.57;6.65;;;10.00;99.90;;;;;;5059214;28;20218;-85
2022/03/17 05:18:33;;;;;;;6.13;5.63;;;10.00;99.90;;;;;;5061415;28;20588;-80
2022/03/17 05:20:59;;;;;;;6.93;6.13;;;9.80;99.90;;;;;;5065222;28;20174;-82
2022/03/17 05:23:25;;;;;;;10.15;5.57;;;9.90;99.90;;;;;;5063230;28;20211;-87
2022/03/17 05:25:51;;;;;;;7.25;6.60;;;9.90;99.90;;;;;;5067998;28;20163;-85
2022/03/17 05:28:17;;;;;;;8.40;6.80;;;10.00;99.90;;;;;;5064638;28;20632;-85
2022/03/17 05:30:43;;;;;;;6.93;5.63;;;10.00;99.90;;;;;;5062703;28;20654;-87
2022/03/17 05:33:11;;;;;;;10.45;6.18;;;10.00;99.90;;;;;;5063435;28;20218;-83
2022/03/17 05:35:42;;;;;;;9.00;5.70;;;10.00;99.90;;;;;;5062752;28;20197;-88
2022/03/17 05:38:09;;;;;;;10.38;5.70;;;9.90;99.90;;;;;;5064480;28;20167;-83
2022/03/17 05:40:36;;;;;;;6.78;6.07;;;9.90;99.90;;;;;;5063172;28;20639;-85
2022/03/17 05:43:06;;;;;;;6.97;5.43;;;9.90;99.90;;;;;;5044902;28;20237;-86
2022/03/17 05:45:32;;;;;;;7.78;6.82;;;10.00;99.90;;;;;;5063526;28;20155;-86
2022/03/17 05:48:00;;;;;;;9.32;6.82;;;10.10;99.90;;;;;;5062673;28;20171;-84
2022/03/17 05:50:31;;;;;;;17.30;6.68;;;10.10;99.90;;;;;;5063542;28;20175;-85
2022/03/17 05:52:57;;;;;;;6.45;5.70;;;10.00;99.90;;;;;;5061400;28;20186;-83
2022/03/17 05:55:25;;;;;;;6.60;5.95;;;10.00;99.90;;;;;;5065690;28;20175;-84
2022/03/17 05:57:53;;;;;;;9.77;6.10;;;10.00;99.90;;;;;;5062215;28;20162;-81
2022/03/17 06:00:23;;;;;;;6.07;5.13;;;10.10;99.90;;;;;;5063058;28;20175;-87
2022/03/17 06:02:50;;;;;;;6.85;5.65;;;9.80;99.90;;;;;;5063470;28;20190;-84
2022/03/17 06:05:17;;;;;;;7.43;6.18;;;9.80;99.90;;;;;;5069328;28;20201;-85
2022/03/17 06:07:48;;;;;;;6.30;5.78;;;9.90;99.90;;;;;;5065072;28;20230;-87
2022/03/17 06:10:26;;;;;;;8.88;5.32;;;10.00;99.90;;;;;;5062982;28;20175;-85
2022/03/17 06:12:54;;;;;;;11.30;6.35;;;9.90;99.90;;;;;;5063852;28;20186;-86
2022/03/17 06:15:21;;;;;;;11.00;5.65;;;9.90;99.90;;;;;;5063962;28;20217;-85
2022/03/17 06:17:49;;;;;;;9.05;6.05;;;9.90;99.90;;;;;;5064438;28;20258;-85
2022/03/17 06:20:17;;;;;;;7.65;6.45;;;10.00;99.90;;;;;;5065253;28;20173;-86
2022/03/17 06:22:45;;;;;;;8.15;6.07;;;10.00;99.90;;;;;;5062630;28;20171;-85
2022/03/17 06:25:16;;;;;;;8.55;6.00;;;10.10;99.90;;;;;;5057286;28;20206;-85
2022/03/17 06:27:46;;;;;;;6.32;5.68;;;10.10;99.90;;;;;;5055692;28;20187;-82
2022/03/17 06:30:31;;;;;;;7.95;6.28;;;9.90;99.90;;;;;;5072400;28;20178;-85
2022/03/17 06:32:58;;;;;;;8.75;6.38;;;9.80;99.90;;;;;;5072998;28;20171;-81
2022/03/17 06:35:25;;;;;;;8.73;5.90;;;9.80;99.90;;;;;;5061300;28;20175;-82
2022/03/17 06:38:10;;;;;;;6.53;5.60;;;9.80;99.90;;;;;;5071597;28;20228;-85
2022/03/17 06:40:37;;;;;;;6.55;5.85;;;9.90;99.90;;;;;;5062210;28;20717;-83
2022/03/17 06:43:04;;;;;;;8.68;6.30;;;9.90;99.90;;;;;;5063532;28;20160;-84
2022/03/17 06:45:33;;;;;;;12.13;5.93;;;9.90;99.90;;;;;;5065067;28;20172;-81
2022/03/17 06:47:59;;;;;;;9.13;6.50;;;10.00;99.90;;;;;;5068580;28;20174;-85
2022/03/17 06:50:25;;;;;;;6.93;5.50;;;10.10;99.90;;;;;;5067029;28;20242;-82
2022/03/17 06:52:55;;;;;;;6.82;4.97;;;10.00;99.90;;;;;;5071136;28;20171;-83
2022/03/17 06:55:21;;;;;;;5.03;4.57;;;10.00;99.90;;;;;;5063548;28;20212;-86
2022/03/17 06:57:48;;;;;;;9.60;5.18;;;9.80;99.90;;;;;;5058056;28;20273;-85
2022/03/17 07:00:15;;;;;;;5.95;5.35;;;9.70;99.90;;;;;;5058172;28;20163;-80
2022/03/17 07:02:41;;;;;;;6.13;4.57;;;9.70;99.90;;;;;;5055896;28;20198;-82
2022/03/17 07:05:08;;;;;;;5.25;4.75;;;9.70;99.90;;;;;;5057050;28;20650;-81
2022/03/17 07:07:36;;;;;;;9.32;4.75;;;9.80;99.90;;;;;;5061728;28;20187;-82
2022/03/17 07:10:02;;;;;;;5.32;4.82;;;9.70;99.90;;;;;;5059246;28;20194;-80
2022/03/17 07:12:28;;;;;;;6.68;4.63;;;9.70;99.90;;;;;;5055909;28;20199;-82
2022/03/17 07:14:53;;;;;;;6.57;4.05;;;9.90;99.90;;;;;;5055552;28;20175;-81
2022/03/17 07:17:20;;;;;;;5.15;4.47;;;9.90;99.90;;;;;;5055560;28;20237;-85
2022/03/17 07:22:25;;;;;;;4.53;3.63;;;10.10;99.90;;;;;;5055271;28;20169;-82
2022/03/17 07:24:51;;;;;;;4.97;3.95;;;10.00;99.90;;;;;;5054009;28;20274;-81
2022/03/17 07:27:16;;;;;;;6.70;3.95;;;10.10;99.90;;;;;;5053402;28;20179;-82
2022/03/17 07:29:44;;;;;;;6.72;3.65;;;10.10;99.90;;;;;;5055022;28;20224;-86
2022/03/17 07:32:10;;;;;;;5.55;4.00;;;10.10;99.90;;;;;;5055439;28;20163;-85
2022/03/17 07:34:35;;;;;;;8.73;3.72;;;10.10;99.90;;;;;;5055088;28;20159;-87
2022/03/17 07:37:01;;;;;;;11.43;4.15;;;10.20;99.90;;;;;;5053583;28;20194;-83
2022/03/17 07:39:26;;;;;;;3.97;3.20;;;10.20;99.90;;;;;;5054145;28;20178;-80
2022/03/17 07:42:15;;;;;;;3.30;3.00;;;10.30;99.90;;;;;;5067550;28;20144;-88
2022/03/17 07:44:43;;;;;;;6.53;2.65;;;10.20;99.90;;;;;;5056819;28;20218;-86
2022/03/17 07:47:09;;;;;;;3.17;2.88;;;10.20;99.90;;;;;;5054649;28;20731;-82
2022/03/17 07:49:38;;;;;;;3.25;2.95;;;10.20;99.90;;;;;;5070159;28;20159;-86
2022/03/17 07:52:10;;;;;;;5.10;2.92;;;9.90;99.90;;;;;;5070799;28;20176;-86
2022/03/17 07:54:35;;;;;;;5.78;3.30;;;9.80;99.90;;;;;;5055052;28;20163;-86
2022/03/17 07:57:03;;;;;;;7.85;2.88;;;9.80;99.90;;;;;;5055080;28;20550;-80
2022/03/17 07:59:29;;;;;;;7.28;2.90;;;9.90;99.90;;;;;;5039082;28;20597;-86
2022/03/17 08:01:54;;;;;;;5.82;3.00;;;9.90;99.90;;;;;;5036754;28;20206;-81
2022/03/17 08:04:20;;;;;;;5.40;3.20;;;9.90;99.90;;;;;;5053119;28;20557;-89
2022/03/17 08:06:46;;;;;;;12.38;3.47;;;10.10;99.90;;;;;;5050730;28;20225;-85
2022/03/17 08:09:11;;;;;;;8.02;3.45;;;10.20;99.90;;;;;;5036069;28;20171;-85
2022/03/17 08:11:37;;;;;;;3.47;3.03;;;10.20;99.90;;;;;;5035049;28;20167;-80
2022/03/17 08:14:02;;;;;;;7.05;3.08;;;10.20;99.90;;;;;;5035563;28;20261;-81
2022/03/17 08:16:28;;;;;;;6.07;3.65;;;10.20;99.90;;;;;;5036797;28;20194;-81
2022/03/17 08:18:54;;;;;;;7.65;3.60;;;10.20;99.90;;;;;;5049574;28;20202;-82
2022/03/17 08:21:19;;;;;;;3.75;2.55;;;10.40;99.90;;;;;;5053727;28;20175;-84
2022/03/17 08:23:45;;;;;;;3.38;3.08;;;10.50;99.90;;;;;;5069503;28;20210;-82
2022/03/17 08:26:12;;;;;;;6.90;3.95;;;10.30;99.90;;;;;;5068723;28;20179;-80
2022/03/17 08:28:38;;;;;;;5.10;3.50;;;10.40;99.90;;;;;;5056633;28;20171;-81
2022/03/17 08:31:03;;;;;;;6.70;3.97;;;10.60;99.90;;;;;;5047579;28;20528;-81
2022/03/17 08:33:29;;;;;;;3.90;3.53;;;10.70;99.90;;;;;;5038745;28;20228;-81
2022/03/17 08:35:55;;;;;;;13.90;3.70;;;10.70;99.90;;;;;;5052702;28;20603;-81
2022/03/17 08:38:20;;;;;;;13.20;4.82;;;10.70;99.90;;;;;;5035767;28;20175;-83
2022/03/17 08:40:46;;;;;;;10.32;3.70;;;10.50;99.90;;;;;;5035320;28;20167;-83
2022/03/17 08:43:12;;;;;;;4.70;3.95;;;10.60;99.90;;;;;;5053010;28;20678;-81
2022/03/17 08:51:28;;;;;;;9.10;3.30;;;10.80;99.90;;;;;;4973105;28;20233;-80
2022/03/17 08:53:56;;;;;;;2.92;2.60;;;10.80;99.90;;;;;;5020121;28;20592;-80
2022/03/17 08:56:22;;;;;;;5.93;2.60;;;10.50;99.90;;;;;;5053272;28;20187;-86
2022/03/17 08:58:48;;;;;;;6.88;2.70;;;10.50;99.90;;;;;;5035978;28;20165;-78
2022/03/17 09:01:13;;;;;;;5.18;2.65;;;10.50;99.90;;;;;;5054117;28;20253;-83
2022/03/17 09:03:39;;;;;;;3.00;2.25;;;10.40;99.90;;;;;;5034726;28;20305;-82
2022/03/17 09:06:05;;;;;;;2.40;2.13;;;10.30;99.90;;;;;;5037009;28;20190;-79
2022/03/17 09:08:30;;;;;;;6.25;2.00;;;10.30;99.90;;;;;;5053312;28;20512;-81
2022/03/17 09:10:57;;;;;;;2.97;2.15;;;10.10;99.90;;;;;;5037840;28;20164;-83
2022/03/17 09:13:25;;;;;;;12.88;2.53;;;9.90;99.90;;;;;;5043181;28;20186;-81
2022/03/17 09:15:53;;;;;;;2.17;2.05;;;10.10;99.90;;;;;;5075985;28;20174;-79
2022/03/17 09:18:21;;;;;;;3.08;2.58;;;10.00;99.90;;;;;;5056307;28;20242;-81
2022/03/17 09:20:47;;;;;;;4.13;2.47;;;10.00;99.90;;;;;;5034991;28;20206;-82
2022/03/17 09:23:13;;;;;;;3.40;2.25;;;10.10;99.90;;;;;;5034874;28;20217;-81
2022/03/17 09:25:39;;;;;;;6.30;2.58;;;10.30;99.90;;;;;;5053140;28;20167;-81
2022/03/17 09:28:05;;;;;;;5.25;3.05;;;10.60;99.90;;;;;;5053104;28;20520;-82
2022/03/17 09:30:32;;;;;;;4.13;2.55;;;10.90;99.90;;;;;;5052348;28;20976;-81
2022/03/17 09:32:59;;;;;;;3.20;2.83;;;11.20;99.90;;;;;;5034648;28;20167;-81
2022/03/17 09:35:26;;;;;;;18.17;2.90;;;11.10;99.90;;;;;;5052575;28;20191;-87
2022/03/17 09:37:52;;;;;;;10.35;2.88;;;11.30;99.90;;;;;;5050225;28;21052;-83
2022/03/17 09:40:18;;;;;;;7.68;2.40;;;11.40;99.90;;;;;;5052865;28;20250;-83
2022/03/17 09:42:43;;;;;;;3.72;3.25;;;11.30;99.90;;;;;;5033898;28;20258;-80
2022/03/17 09:45:10;;;;;;;4.07;3.35;;;11.10;99.90;;;;;;5034362;28;20294;-84
2022/03/17 09:47:37;;;;;;;7.78;2.72;;;11.00;99.90;;;;;;5029138;28;20264;-80
2022/03/17 09:50:05;;;;;;;4.68;3.15;;;11.00;99.90;;;;;;5036222;28;20171;-81
2022/03/17 09:52:32;;;;;;;4.45;2.47;;;11.10;99.90;;;;;;5051605;28;20178;-81
2022/03/17 09:54:58;;;;;;;7.25;3.78;;;11.10;99.90;;;;;;5031309;28;20559;-81
2022/03/17 09:57:24;;;;;;;4.90;3.10;;;10.70;99.90;;;;;;5051092;28;20686;-81
2022/03/17 09:59:58;;;;;;;3.38;3.08;;;11.00;99.90;;;;;;5032811;28;20190;-82
2022/03/17 10:02:25;;;;;;;9.45;3.60;;;10.90;99.90;;;;;;5049381;28;20249;-81
2022/03/17 10:04:52;;;;;;;5.63;4.88;;;10.70;99.90;;;;;;5051031;28;20219;-82
2022/03/17 10:07:23;;;;;;;4.43;3.75;;;10.50;99.90;;;;;;5053220;28;20201;-82
2022/03/17 10:09:51;;;;;;;4.05;3.30;;;10.60;99.90;;;;;;5036813;28;20170;-79
2022/03/17 10:12:23;;;;;;;10.40;2.70;;;10.80;99.90;;;;;;5056569;28;20221;-79
2022/03/17 10:14:51;;;;;;;5.45;3.63;;;10.90;99.90;;;;;;5055283;28;20221;-85
2022/03/17 10:17:35;;;;;;;3.17;2.92;;;11.10;99.90;;;;;;5035989;28;20218;-82
2022/03/17 10:20:25;;;;;;;3.25;3.00;;;11.10;99.90;;;;;;5053076;28;20213;-82
2022/03/17 10:22:50;;;;;;;2.72;2.53;;;11.40;99.90;;;;;;5036549;28;20174;-83
2022/03/17 10:25:35;;;;;;;7.47;3.15;;;11.50;99.90;;;;;;5042407;28;20196;-83
2022/03/17 10:28:07;;;;;;;6.50;2.70;;;11.60;99.90;;;;;;5038083;28;20175;-82
2022/03/17 10:30:35;;;;;;;3.75;2.60;;;11.50;99.90;;;;;;5069511;28;20254;-81
2022/03/17 10:33:03;;;;;;;4.47;2.53;;;11.40;99.90;;;;;;5034184;28;20171;-82
2022/03/17 10:35:34;;;;;;;3.45;2.63;;;11.00;99.90;;;;;;5054269;28;20240;-83
2022/03/17 10:38:15;;;;;;;3.63;2.38;;;11.00;99.90;;;;;;5036882;28;20187;-85
2022/03/17 10:40:41;;;;;;;9.48;2.40;;;11.20;99.90;;;;;;5054487;28;20242;-83
2022/03/17 10:43:15;;;;;;;3.08;2.40;;;11.10;99.90;;;;;;5035308;28;20244;-82
2022/03/17 10:45:41;;;;;;;5.13;2.20;;;11.10;99.90;;;;;;5042719;28;20252;-83
2022/03/17 10:48:07;;;;;;;3.55;2.60;;;11.10;99.90;;;;;;5054396;28;20217;-81
2022/03/17 10:50:43;;;;;;;5.78;2.45;;;10.90;99.90;;;;;;5058252;28;20571;-86
2022/03/17 10:53:11;;;;;;;3.55;2.50;;;11.10;99.90;;;;;;5028256;28;20163;-86
2022/03/17 10:55:38;;;;;;;3.10;2.78;;;11.60;99.90;;;;;;5060301;28;20159;-87
2022/03/17 10:58:20;;;;;;;2.33;2.13;;;12.00;99.90;;;;;;5044068;28;20175;-88
2022/03/17 11:00:49;;;;;;;5.18;2.55;;;12.20;99.90;;;;;;5062738;28;20179;-85
2022/03/17 11:03:20;;;;;;;2.20;2.00;;;12.00;99.90;;;;;;5047525;28;20244;-85
2022/03/17 11:05:50;;;;;;;2.40;2.20;;;11.80;99.90;;;;;;5035313;28;20191;-86
2022/03/17 11:08:21;;;;;;;12.02;2.33;;;12.00;99.90;;;;;;5056992;28;20163;-87
2022/03/17 11:10:47;;;;;;;3.15;2.10;;;12.40;99.90;;;;;;5076016;28;20175;-87
2022/03/17 11:13:24;;;;;;;3.28;2.53;;;12.30;99.90;;;;;;5040515;28;20166;-86
2022/03/17 11:16:09;;;;;;;10.15;2.15;;;12.40;99.90;;;;;;5041571;28;20194;-87
2022/03/17 11:18:40;;;;;;;12.70;3.08;;;11.90;99.90;;;;;;5073225;28;20163;-82
2022/03/17 11:21:19;;;;;;;3.85;2.05;;;11.80;99.90;;;;;;5058083;28;20246;-85
2022/03/17 11:24:01;;;;;;;2.63;2.42;;;11.90;99.90;;;;;;5058553;28;20203;-87
2022/03/17 11:26:41;;;;;;;6.90;2.03;;;12.10;99.90;;;;;;5072925;28;20217;-82
2022/03/17 11:29:08;;;;;;;1.88;1.75;;;12.40;99.90;;;;;;5070282;28;20209;-80
2022/03/17 11:31:56;;;;;;;6.57;2.35;;;12.20;99.90;;;;;;5055952;28;20175;-82
2022/03/17 11:34:42;;;;;;;2.40;2.20;;;12.30;99.90;;;;;;5048927;28;20171;-80
2022/03/17 11:37:25;;;;;;;2.25;2.05;;;12.20;99.90;;;;;;5051469;28;20179;-82
2022/03/17 11:39:56;;;;;;;3.88;1.90;;;12.30;99.90;;;;;;5070475;28;20345;-82
2022/03/17 11:42:43;;;;;;;8.55;2.72;;;12.60;99.90;;;;;;5054713;28;20171;-81
2022/03/17 11:45:17;;;;;;;3.40;2.97;;;12.60;99.90;;;;;;5052125;28;20266;-83
2022/03/17 11:47:54;;;;;;;3.53;2.78;;;12.50;99.90;;;;;;5071658;28;20225;-79
2022/03/17 11:50:38;;;;;;;3.85;2.60;;;12.70;99.90;;;;;;5051471;28;20166;-80
2022/03/17 11:53:12;;;;;;;9.38;2.20;;;12.70;99.90;;;;;;5058124;28;20182;-80
2022/03/17 11:55:56;;;;;;;7.30;3.05;;;12.50;99.90;;;;;;5070801;28;20242;-82
2022/03/17 11:58:54;;;;;;;4.50;2.50;;;12.70;99.90;;;;;;5057990;28;20170;-81
2022/03/17 12:01:25;;;;;;;4.80;3.22;;;12.70;99.90;;;;;;5049386;28;20240;-82
2022/03/17 12:04:01;;;;;;;5.68;2.60;;;12.60;99.90;;;;;;5045718;28;20607;-84
2022/03/17 12:06:33;;;;;;;6.18;2.60;;;12.30;99.90;;;;;;5038381;28;20194;-82
2022/03/17 12:09:12;;;;;;;3.80;2.95;;;12.50;99.90;;;;;;5041140;28;20177;-85
2022/03/17 12:11:42;;;;;;;11.82;2.63;;;12.70;99.90;;;;;;5065550;28;20163;-85
2022/03/17 12:14:25;;;;;;;3.22;2.92;;;12.30;99.90;;;;;;5064698;28;20644;-83
2022/03/17 12:17:00;;;;;;;3.63;2.53;;;12.50;99.90;;;;;;5040948;28;20191;-87
2022/03/17 12:19:32;;;;;;;4.70;2.85;;;12.70;99.90;;;;;;5060925;28;20220;-86
2022/03/17 12:21:57;;;;;;;3.50;2.10;;;12.30;99.90;;;;;;5041274;28;20183;-87
2022/03/17 12:24:46;;;;;;;9.50;2.65;;;12.40;99.90;;;;;;5040575;28;20556;-87
2022/03/17 12:27:17;;;;;;;3.60;2.58;;;12.30;99.90;;;;;;5056407;28;20194;-84
2022/03/17 12:29:44;;;;;;;4.32;2.30;;;12.20;99.90;;;;;;5056866;28;20167;-84
2022/03/17 12:32:16;;;;;;;2.10;1.90;;;12.30;99.90;;;;;;5056290;28;20182;-82
2022/03/17 12:34:50;;;;;;;3.72;2.40;;;12.20;99.90;;;;;;5033702;28;20243;-85
2022/03/17 12:37:17;;;;;;;6.35;2.53;;;12.50;99.90;;;;;;5049080;28;20270;-82
2022/03/17 12:39:48;;;;;;;2.25;2.05;;;12.70;99.90;;;;;;5056581;28;20179;-85
2022/03/17 12:42:17;;;;;;;2.42;1.83;;;13.00;99.90;;;;;;5062360;28;20194;-86
2022/03/17 12:44:59;;;;;;;5.82;2.08;;;12.90;99.90;;;;;;5056855;28;20274;-84
2022/03/17 12:47:26;;;;;;;3.78;2.40;;;13.00;99.90;;;;;;5056540;28;20219;-81
2022/03/17 12:49:53;;;;;;;4.15;2.60;;;12.60;99.90;;;;;;5060695;28;20159;-84
2022/03/17 12:52:25;;;;;;;2.47;2.28;;;12.40;99.90;;;;;;5052821;28;20219;-82
2022/03/17 12:54:55;;;;;;;4.40;2.30;;;12.50;99.90;;;;;;5066102;28;20178;-81
2022/03/17 12:57:23;;;;;;;3.45;2.33;;;12.60;99.90;;;;;;5035602;28;20195;-85
2022/03/17 12:59:49;;;;;;;5.82;2.50;;;12.60;99.90;;;;;;5054717;28;20638;-87
2022/03/17 13:02:18;;;;;;;5.75;2.15;;;12.40;99.90;;;;;;5053487;28;20178;-81
2022/03/17 13:04:50;;;;;;;5.32;2.58;;;12.30;99.90;;;;;;5053099;28;20356;-81
2022/03/17 13:07:17;;;;;;;3.47;2.22;;;12.10;99.90;;;;;;5035920;28;20183;-87
2022/03/17 13:09:43;;;;;;;4.47;2.65;;;12.10;99.90;;;;;;5039356;28;20167;-84